createdAt,value
2023-01-07T00:02:17.901Z,99.90
2023-01-07T00:04:50.566Z,99.90
2023-01-07T00:07:23.278Z,99.90
2023-01-07T00:09:55.804Z,99.90
2023-01-07T00:12:27.728Z,99.90
2023-01-07T00:17:33.101Z,99.90
2023-01-07T00:20:06.857Z,99.90
2023-01-07T00:22:38.800Z,99.90
2023-01-07T00:25:11.516Z,99.90
2023-01-07T00:27:43.671Z,99.90
2023-01-07T00:30:15.587Z,99.90
2023-01-07T00:33:09.107Z,99.90
2023-01-07T00:38:14.368Z,99.90
2023-01-07T00:40:46.689Z,99.90
2023-01-07T00:45:51.728Z,99.90
2023-01-07T00:48:24.069Z,99.90
2023-01-07T00:50:57.789Z,99.90
2023-01-07T00:53:33.145Z,99.90
2023-01-07T00:56:05.808Z,99.90
2023-01-07T00:58:38.125Z,99.90
2023-01-07T01:01:12.630Z,99.90
2023-01-07T01:03:45.177Z,99.90
2023-01-07T01:06:17.919Z,99.90
2023-01-07T01:08:49.786Z,99.90
2023-01-07T01:11:22.569Z,99.90
2023-01-07T01:13:54.478Z,99.90
2023-01-07T01:16:27.377Z,99.90
2023-01-07T01:18:59.398Z,99.90
2023-01-07T01:21:32.356Z,99.90
2023-01-07T01:24:04.393Z,99.90
2023-01-07T01:26:37.142Z,99.90
2023-01-07T01:29:09.512Z,99.90
2023-01-07T01:31:41.753Z,99.90
2023-01-07T01:34:14.784Z,99.90
2023-01-07T01:36:46.970Z,99.90
2023-01-07T01:39:20.899Z,99.90
2023-01-07T01:41:52.994Z,99.90
2023-01-07T01:44:56.971Z,99.90
2023-01-07T01:48:01.270Z,99.90
2023-01-07T01:50:40.828Z,99.90
2023-01-07T01:53:22.001Z,99.90
2023-01-07T01:56:09.686Z,99.90
2023-01-07T01:58:48.266Z,99.90
2023-01-07T02:01:22.767Z,99.90
2023-01-07T02:03:57.616Z,99.90
2023-01-07T02:06:33.960Z,99.90
2023-01-07T02:09:05.925Z,99.90
2023-01-07T02:15:15.663Z,99.90
2023-01-07T02:18:12.046Z,99.90
2023-01-07T02:20:56.777Z,99.90
2023-01-07T02:24:03.035Z,99.90
2023-01-07T02:26:47.483Z,99.90
2023-01-07T02:29:54.587Z,99.90
2023-01-07T02:32:38.604Z,99.90
2023-01-07T02:35:30.332Z,99.90
2023-01-07T02:38:34.694Z,99.90
2023-01-07T02:41:29.832Z,99.90
2023-01-07T02:44:43.633Z,99.90
2023-01-07T02:47:39.714Z,99.90
2023-01-07T02:50:11.879Z,99.90
2023-01-07T02:52:44.732Z,99.90
2023-01-07T02:55:31.391Z,99.90
2023-01-07T02:58:41.649Z,99.90
2023-01-07T03:01:28.710Z,99.90
2023-01-07T03:04:25.984Z,99.90
2023-01-07T03:07:38.466Z,99.90
2023-01-07T03:10:23.647Z,99.90
2023-01-07T03:13:14.543Z,99.90
2023-01-07T03:16:22.105Z,99.90
2023-01-07T03:19:16.045Z,99.90
2023-01-07T03:21:49.431Z,99.90
2023-01-07T03:24:25.039Z,99.90
2023-01-07T03:27:00.553Z,99.90
2023-01-07T03:29:36.023Z,99.90
2023-01-07T03:32:11.403Z,99.90
2023-01-07T03:34:45.194Z,99.90
2023-01-07T03:37:22.317Z,99.90
2023-01-07T03:39:55.686Z,99.90
2023-01-07T03:42:40.640Z,99.90
2023-01-07T03:45:25.645Z,99.90
2023-01-07T03:48:01.250Z,99.90
2023-01-07T03:53:14.436Z,99.90
2023-01-07T04:00:56.932Z,99.90
2023-01-07T04:03:29.540Z,99.90
2023-01-07T04:06:02.333Z,99.90
2023-01-07T04:08:37.022Z,99.90
2023-01-07T04:11:10.053Z,99.90
2023-01-07T04:13:43.198Z,99.90
2023-01-07T04:16:16.381Z,99.90
2023-01-07T04:18:48.809Z,99.90
2023-01-07T04:21:20.858Z,99.90
2023-01-07T04:23:53.570Z,99.90
2023-01-07T04:26:26.751Z,99.90
2023-01-07T04:34:06.870Z,99.90
2023-01-07T04:36:38.787Z,99.90
2023-01-07T04:39:12.948Z,99.90
2023-01-07T04:44:18.808Z,99.90
2023-01-07T04:46:50.750Z,99.90
2023-01-07T04:49:24.681Z,99.90
2023-01-07T04:51:57.786Z,99.90
2023-01-07T04:54:30.822Z,99.90
2023-01-07T04:57:02.773Z,99.90
2023-01-07T04:59:35.874Z,99.90
2023-01-07T05:02:08.570Z,99.90
2023-01-07T05:04:42.173Z,99.90
2023-01-07T05:07:16.638Z,99.90
2023-01-07T05:09:49.429Z,99.90
2023-01-07T05:12:23.804Z,99.90
2023-01-07T05:14:56.405Z,99.90
2023-01-07T05:17:29.873Z,99.90
2023-01-07T05:20:04.026Z,99.90
2023-01-07T05:22:36.315Z,99.90
2023-01-07T05:25:09.027Z,99.90
2023-01-07T05:30:16.333Z,99.90
2023-01-07T05:32:53.546Z,99.90
2023-01-07T05:35:25.764Z,99.90
2023-01-07T05:37:58.616Z,99.90
2023-01-07T05:40:30.675Z,99.90
2023-01-07T05:43:02.887Z,99.90
2023-01-07T05:48:08.265Z,99.90
2023-01-07T05:50:41.322Z,99.90
2023-01-07T05:55:46.889Z,99.90
2023-01-07T05:58:19.204Z,99.90
2023-01-07T06:00:51.592Z,99.90
2023-01-07T06:03:24.998Z,99.90
2023-01-07T06:05:57.869Z,99.90
2023-01-07T06:08:30.192Z,99.90
2023-01-07T06:11:04.060Z,99.90
2023-01-07T06:13:36.558Z,99.90
2023-01-07T06:16:14.798Z,99.90
2023-01-07T06:18:49.434Z,99.90
2023-01-07T06:21:21.737Z,99.90
2023-01-07T06:23:54.469Z,99.90
2023-01-07T06:26:26.376Z,99.90
2023-01-07T06:28:59.094Z,99.90
2023-01-07T06:31:32.015Z,99.90
2023-01-07T06:36:36.734Z,99.90
2023-01-07T06:39:09.112Z,99.90
2023-01-07T06:41:41.553Z,99.90
2023-01-07T06:44:13.469Z,99.90
2023-01-07T06:46:46.215Z,99.90
2023-01-07T06:49:18.527Z,99.90
2023-01-07T06:56:55.781Z,99.90
2023-01-07T06:59:28.510Z,99.90
2023-01-07T07:02:00.463Z,99.90
2023-01-07T07:04:33.823Z,99.90
2023-01-07T07:12:11.807Z,99.90
2023-01-07T07:14:44.262Z,99.90
2023-01-07T07:17:16.949Z,99.90
2023-01-07T07:19:49.274Z,99.90
2023-01-07T07:24:54.206Z,99.90
2023-01-07T07:27:26.177Z,99.90
2023-01-07T07:29:58.915Z,99.90
2023-01-07T07:35:03.987Z,99.90
2023-01-07T07:40:10.203Z,99.90
2023-01-07T07:45:36.107Z,99.90
2023-01-07T07:48:10.628Z,99.90
2023-01-07T07:50:42.549Z,99.90
2023-01-07T07:53:15.842Z,99.90
2023-01-07T07:55:47.986Z,99.90
2023-01-07T07:58:21.297Z,99.90
2023-01-07T08:00:56.496Z,99.90
2023-01-07T08:03:29.123Z,99.90
2023-01-07T08:06:01.368Z,99.90
2023-01-07T08:08:34.390Z,99.90
2023-01-07T08:11:06.357Z,99.90
2023-01-07T08:13:39.132Z,99.90
2023-01-07T08:16:11.564Z,99.90
2023-01-07T08:18:43.654Z,99.90
2023-01-07T08:21:15.607Z,99.90
2023-01-07T08:26:20.628Z,99.90
2023-01-07T08:28:54.595Z,99.90
2023-01-07T08:31:26.640Z,99.90
2023-01-07T08:34:00.203Z,99.90
2023-01-07T08:36:32.171Z,99.90
2023-01-07T08:39:06.929Z,99.90
2023-01-07T08:41:39.006Z,99.90
2023-01-07T08:44:12.004Z,99.90
2023-01-07T08:46:43.991Z,99.90
2023-01-07T08:49:16.766Z,99.90
2023-01-07T08:51:49.054Z,99.90
2023-01-07T08:54:21.390Z,99.90
2023-01-07T08:56:53.857Z,99.90
2023-01-07T09:01:59.334Z,99.90
2023-01-07T09:04:31.851Z,99.90
2023-01-07T09:07:05.172Z,99.90
2023-01-07T09:09:37.926Z,99.90
2023-01-07T09:12:11.404Z,99.90
2023-01-07T09:14:43.325Z,99.90
2023-01-07T09:17:17.146Z,99.90
2023-01-07T09:19:49.515Z,99.90
2023-01-07T09:22:23.325Z,99.90
2023-01-07T09:24:56.057Z,99.90
2023-01-07T09:27:28.640Z,99.90
2023-01-07T09:32:33.938Z,99.90
2023-01-07T09:35:07.106Z,99.90
2023-01-07T09:37:40.004Z,99.90
2023-01-07T09:40:26.117Z,99.90
2023-01-07T09:43:25.624Z,99.90
2023-01-07T09:49:02.851Z,99.90
2023-01-07T09:51:40.291Z,99.90
2023-01-07T09:54:30.115Z,99.90
2023-01-07T09:57:02.921Z,99.90
2023-01-07T10:02:46.426Z,99.90
2023-01-07T10:05:44.647Z,99.90
2023-01-07T10:08:41.161Z,99.90
2023-01-07T10:12:21.512Z,99.90
2023-01-07T10:15:24.571Z,99.90
2023-01-07T10:18:27.111Z,99.90
2023-01-07T10:21:16.013Z,99.90
2023-01-07T10:24:03.157Z,99.90
2023-01-07T10:26:42.213Z,99.90
2023-01-07T10:29:26.480Z,99.90
2023-01-07T10:32:08.939Z,99.90
2023-01-07T10:34:51.400Z,99.90
2023-01-07T10:40:53.936Z,99.90
2023-01-07T10:44:00.823Z,99.90
2023-01-07T10:47:14.915Z,99.90
2023-01-07T10:50:40.490Z,99.90
2023-01-07T10:53:50.566Z,99.90
2023-01-07T10:56:33.144Z,99.90
2023-01-07T10:59:16.098Z,99.90
2023-01-07T11:02:00.716Z,99.90
2023-01-07T11:04:32.782Z,99.90
2023-01-07T11:07:08.925Z,99.90
2023-01-07T11:09:44.568Z,99.90
2023-01-07T11:12:45.085Z,99.90
2023-01-07T11:15:25.539Z,99.90
2023-01-07T11:18:12.895Z,99.90
2023-01-07T11:20:52.665Z,99.90
2023-01-07T11:23:32.354Z,99.90
2023-01-07T11:26:18.274Z,99.90
2023-01-07T11:29:01.850Z,99.90
2023-01-07T11:31:51.732Z,99.90
2023-01-07T11:34:57.688Z,99.90
2023-01-07T11:37:42.967Z,99.90
2023-01-07T11:40:15.684Z,99.90
2023-01-07T11:45:27.173Z,99.90
2023-01-07T11:48:04.979Z,99.90
2023-01-07T11:51:06.007Z,99.90
2023-01-07T11:53:49.430Z,99.90
2023-01-07T11:56:22.236Z,99.90
2023-01-07T11:59:20.256Z,99.90
2023-01-07T12:01:59.268Z,99.90
2023-01-07T12:04:36.903Z,99.90
2023-01-07T12:07:18.027Z,99.90
2023-01-07T12:09:50.398Z,99.90
2023-01-07T12:12:39.220Z,99.90
2023-01-07T12:15:35.447Z,99.90
2023-01-07T12:21:25.468Z,99.90
2023-01-07T12:24:45.084Z,99.90
2023-01-07T12:27:47.931Z,99.90
2023-01-07T12:30:43.922Z,99.90
2023-01-07T12:34:02.747Z,99.90
2023-01-07T12:37:02.580Z,99.90
2023-01-07T12:39:42.866Z,99.90
2023-01-07T12:44:57.958Z,99.70
2023-01-07T12:47:37.235Z,99.90
2023-01-07T12:50:17.550Z,99.10
2023-01-07T12:53:06.951Z,99.50
2023-01-07T12:56:05.963Z,99.80
2023-01-07T12:58:48.257Z,99.30
2023-01-07T13:02:07.380Z,99.40
2023-01-07T13:05:01.012Z,99.50
2023-01-07T13:07:58.195Z,99.10
2023-01-07T13:11:02.279Z,99.20
2023-01-07T13:13:39.667Z,99.40
2023-01-07T13:16:12.170Z,99.50
2023-01-07T13:18:44.935Z,99.50
2023-01-07T13:21:20.435Z,99.90
2023-01-07T13:27:19.293Z,99.90
2023-01-07T13:32:54.382Z,99.90
2023-01-07T13:36:07.348Z,99.90
2023-01-07T13:39:10.625Z,99.90
2023-01-07T13:42:19.302Z,99.90
2023-01-07T13:45:17.593Z,99.90
2023-01-07T13:47:54.293Z,99.90
2023-01-07T13:50:38.407Z,99.90
2023-01-07T13:53:17.142Z,99.90
2023-01-07T13:58:31.436Z,99.90
2023-01-07T14:01:09.983Z,99.90
2023-01-07T14:03:50.154Z,99.90
2023-01-07T14:06:22.741Z,99.90
2023-01-07T14:09:11.418Z,99.90
2023-01-07T14:12:29.459Z,99.90
2023-01-07T14:15:24.781Z,99.90
2023-01-07T14:18:41.459Z,99.90
2023-01-07T14:21:29.206Z,99.90
2023-01-07T14:24:49.700Z,99.90
2023-01-07T14:27:41.650Z,99.90
2023-01-07T14:30:44.343Z,99.90
2023-01-07T14:33:39.034Z,99.90
2023-01-07T14:36:11.969Z,99.90
2023-01-07T14:38:58.595Z,99.90
2023-01-07T14:41:30.613Z,99.90
2023-01-07T14:44:06.356Z,99.90
2023-01-07T14:49:48.003Z,99.90
2023-01-07T14:52:48.251Z,99.90
2023-01-07T14:56:41.429Z,99.90
2023-01-07T14:59:42.545Z,99.90
2023-01-07T15:03:11.274Z,99.90
2023-01-07T15:06:19.567Z,99.90
2023-01-07T15:09:37.029Z,99.90
2023-01-07T15:12:38.486Z,99.90
2023-01-07T15:15:49.096Z,99.90
2023-01-07T15:18:21.031Z,99.90
2023-01-07T15:21:23.250Z,99.90
2023-01-07T15:26:48.654Z,99.90
2023-01-07T15:29:35.677Z,99.90
2023-01-07T15:32:18.862Z,99.90
2023-01-07T15:34:52.086Z,99.90
2023-01-07T15:37:25.493Z,99.90
2023-01-07T15:42:32.862Z,99.90
2023-01-07T15:47:41.913Z,99.90
2023-01-07T15:50:31.085Z,99.90
2023-01-07T15:53:22.936Z,99.90
2023-01-07T15:56:07.206Z,99.90
2023-01-07T15:58:45.289Z,99.90
2023-01-07T16:01:20.749Z,99.90
2023-01-07T16:03:57.113Z,99.90
2023-01-07T16:06:32.049Z,99.90
2023-01-07T16:09:18.807Z,99.90
2023-01-07T16:11:51.053Z,99.90
2023-01-07T16:14:26.670Z,99.90
2023-01-07T16:17:16.268Z,99.90
2023-01-07T16:25:31.729Z,99.90
2023-01-07T16:28:05.832Z,99.90
2023-01-07T16:30:41.516Z,99.90
2023-01-07T16:33:21.556Z,99.90
2023-01-07T16:35:58.994Z,99.90
2023-01-07T16:38:33.001Z,99.90
2023-01-07T16:43:39.618Z,99.90
2023-01-07T16:46:39.273Z,99.90
2023-01-07T16:49:21.466Z,99.90
2023-01-07T16:52:12.513Z,99.90
2023-01-07T16:54:46.829Z,99.90
2023-01-07T16:57:40.603Z,99.90
2023-01-07T17:00:19.342Z,99.90
2023-01-07T17:03:00.133Z,99.90
2023-01-07T17:08:28.536Z,99.90
2023-01-07T17:11:09.258Z,99.90
2023-01-07T17:13:42.034Z,99.90
2023-01-07T17:16:28.010Z,99.90
2023-01-07T17:19:26.148Z,99.90
2023-01-07T17:22:00.324Z,99.90
2023-01-07T17:24:32.109Z,99.90
2023-01-07T17:27:05.892Z,99.90
2023-01-07T17:29:39.493Z,99.90
2023-01-07T17:32:13.922Z,99.90
2023-01-07T17:34:45.842Z,99.90
2023-01-07T17:37:18.564Z,99.90
2023-01-07T17:39:51.505Z,99.90
2023-01-07T17:42:47.282Z,99.90
2023-01-07T17:45:21.655Z,99.90
2023-01-07T17:47:53.821Z,99.90
2023-01-07T17:50:36.267Z,99.90
2023-01-07T17:53:21.027Z,99.90
2023-01-07T17:55:53.976Z,99.90
2023-01-07T17:58:38.184Z,99.90
2023-01-07T18:01:14.350Z,99.90
2023-01-07T18:06:25.603Z,99.90
2023-01-07T18:08:57.530Z,99.90
2023-01-07T18:11:48.755Z,99.90
2023-01-07T18:16:53.819Z,99.90
2023-01-07T18:21:58.981Z,99.90
2023-01-07T18:24:30.872Z,99.90
2023-01-07T18:29:37.292Z,99.90
2023-01-07T18:32:09.322Z,99.90
2023-01-07T18:42:20.817Z,99.90
2023-01-07T18:47:25.437Z,99.90
2023-01-07T18:49:58.235Z,99.90
2023-01-07T18:52:31.023Z,99.90
2023-01-07T18:55:04.042Z,99.90
2023-01-07T18:57:37.236Z,99.90
2023-01-07T19:00:10.277Z,99.90
2023-01-07T19:02:43.080Z,99.90
2023-01-07T19:05:17.996Z,99.90
2023-01-07T19:07:50.072Z,99.90
2023-01-07T19:10:24.518Z,99.90
2023-01-07T19:12:56.466Z,99.90
2023-01-07T19:15:29.198Z,99.90
2023-01-07T19:18:01.374Z,99.90
2023-01-07T19:23:07.672Z,99.90
2023-01-07T19:25:39.567Z,99.90
2023-01-07T19:28:11.986Z,99.90
2023-01-07T19:30:44.317Z,99.90
2023-01-07T19:33:16.222Z,99.90
2023-01-07T19:35:48.995Z,99.90
2023-01-07T19:40:54.205Z,99.90
2023-01-07T19:43:26.353Z,99.90
2023-01-07T19:45:59.229Z,99.90
2023-01-07T19:48:32.806Z,99.90
2023-01-07T19:51:06.339Z,99.90
2023-01-07T19:53:39.317Z,99.90
2023-01-07T19:56:12.618Z,99.90
2023-01-07T19:58:45.362Z,99.90
2023-01-07T20:03:55.776Z,99.90
2023-01-07T20:06:30.194Z,99.90
2023-01-07T20:09:11.039Z,99.90
2023-01-07T20:11:44.512Z,99.90
2023-01-07T20:16:50.352Z,99.90
2023-01-07T20:19:23.402Z,99.90
2023-01-07T20:21:55.836Z,99.90
2023-01-07T20:24:27.737Z,99.90
2023-01-07T20:27:00.505Z,99.90
2023-01-07T20:29:32.962Z,99.90
2023-01-07T20:32:07.863Z,99.90
2023-01-07T20:37:13.144Z,99.90
2023-01-07T20:39:45.471Z,99.90
2023-01-07T20:42:17.333Z,99.90
2023-01-07T20:44:52.056Z,99.90
2023-01-07T20:47:24.501Z,99.90
2023-01-07T20:49:56.393Z,99.90
2023-01-07T20:52:29.098Z,99.90
2023-01-07T20:55:01.420Z,99.90
2023-01-07T20:57:33.647Z,99.90
2023-01-07T21:00:07.075Z,99.90
2023-01-07T21:05:12.393Z,99.90
2023-01-07T21:07:44.795Z,99.90
2023-01-07T21:10:19.565Z,99.90
2023-01-07T21:12:51.746Z,99.90
2023-01-07T21:15:24.564Z,99.90
2023-01-07T21:17:56.985Z,99.90
2023-01-07T21:20:49.421Z,99.90
2023-01-07T21:25:54.775Z,99.90
2023-01-07T21:28:27.483Z,99.90
2023-01-07T21:31:09.184Z,99.90
2023-01-07T21:33:43.164Z,99.90
2023-01-07T21:36:18.817Z,99.90
2023-01-07T21:38:57.813Z,99.90
2023-01-07T21:41:29.920Z,99.90
2023-01-07T21:49:08.640Z,99.90
2023-01-07T21:51:40.559Z,99.90
2023-01-07T21:54:13.282Z,99.90
2023-01-07T21:56:45.190Z,99.90
2023-01-07T21:59:18.087Z,99.90
2023-01-07T22:01:50.148Z,99.90
2023-01-07T22:04:23.046Z,99.90
2023-01-07T22:06:55.706Z,99.90
2023-01-07T22:09:28.357Z,99.90
2023-01-07T22:12:01.065Z,99.90
2023-01-07T22:14:32.958Z,99.90
2023-01-07T22:22:11.000Z,99.90
2023-01-07T22:24:43.457Z,99.90
2023-01-07T22:27:17.305Z,99.90
2023-01-07T22:29:50.008Z,99.90
2023-01-07T22:32:21.905Z,99.90
2023-01-07T22:34:54.253Z,99.90
2023-01-07T22:40:04.412Z,99.90
2023-01-07T22:43:06.110Z,99.90
2023-01-07T22:45:54.862Z,99.90
2023-01-07T22:48:29.267Z,99.90
2023-01-07T22:51:10.960Z,99.90
2023-01-07T22:53:44.941Z,99.90
2023-01-07T22:56:17.690Z,99.90
2023-01-07T22:58:49.626Z,99.90
2023-01-07T23:01:22.413Z,99.90
2023-01-07T23:03:55.556Z,99.90
2023-01-07T23:06:27.887Z,99.90
2023-01-07T23:09:00.705Z,99.90
2023-01-07T23:11:48.620Z,99.90
2023-01-07T23:14:22.905Z,99.90
2023-01-07T23:16:56.082Z,99.90
2023-01-07T23:19:30.840Z,99.90
2023-01-07T23:22:04.176Z,99.90
2023-01-07T23:24:37.061Z,99.90
2023-01-07T23:32:14.449Z,99.90
2023-01-07T23:34:47.147Z,99.90
2023-01-07T23:37:19.483Z,99.90
2023-01-07T23:39:51.816Z,99.90
2023-01-07T23:42:24.185Z,99.90
2023-01-07T23:44:57.124Z,99.90
2023-01-07T23:47:29.858Z,99.90
2023-01-07T23:52:35.102Z,99.90
2023-01-07T23:55:08.289Z,99.90
2023-01-07T23:57:40.626Z,99.90
